CONNECT WITH FLYNQY PILOT TRAINING

Newquay Five Day Forecast

This Weather Widget is provided by the Met Office

EGHQ TAF and METAR

METAR

EGHQ 012120Z 01006KT 9999 SCT025 14/13 Q1029

TAF

TAF EGHQ 011659Z 0118/0121 35010KT 9999 SCT010 PROB30 TEMPO 0118/0121 BKN008